Mon, 08 Aug 2022 17:00:57 UTC

Information for RPM brotli-1.0.9-7.fc36.aarch64.rpm

ID28885249
Namebrotli
Version1.0.9
Release7.fc36
Epoch
Archaarch64
SummaryLossless compression algorithm
DescriptionBrotli is a generic-purpose lossless compression algorithm that compresses data using a combination of a modern variant of the LZ77 algorithm, Huffman coding and 2nd order context modeling, with a compression ratio comparable to the best currently available general-purpose compression methods. It is similar in speed with deflate but offers more dense compression.
Build Time2022-01-19 22:44:18 GMT
Size315.91 KB
99768f6b4708e7e1ef0c8673e6221eca
LicenseMIT
Buildrootf36-build-32492719-4399715
Provides
brotli = 1.0.9-7.fc36
brotli(aarch-64) = 1.0.9-7.fc36
Obsoletes No Obsoletes
Conflicts No Conflicts
Requires
ld-linux-aarch64.so.1()(64bit)
ld-linux-aarch64.so.1(GLIBC_2.17)(64bit)
libbrotli(aarch-64) = 1.0.9-7.fc36
libc.so.6()(64bit)
libc.so.6(GLIBC_2.17)(64bit)
libc.so.6(GLIBC_2.33)(64bit)
libc.so.6(GLIBC_2.34)(64bit)
libm.so.6()(64bit)
libm.so.6(GLIBC_2.29)(64bit)
rpmlib(CompressedFileNames) <= 3.0.4-1
rpmlib(FileDigests) <= 4.6.0-1
rpmlib(PayloadFilesHavePrefix) <= 4.0-1
rpmlib(PayloadIsZstd) <= 5.4.18-1
rtld(GNU_HASH)
Recommends No Recommends
Suggests No Suggests
Supplements No Supplements
Enhances No Enhances
Files
1 through 4 of 4
Name ascending sort Size
/usr/bin/brotli710.48 KB
/usr/lib/.build-id0.00 B
/usr/lib/.build-id/450.00 B
/usr/lib/.build-id/45/c7fdb30b31e01bf90e60cd30d50a21b2f6d22226.00 B
Component of
Page:
1 through 50 of 3966 >>>
Buildroot descending sort Created State
f37-python-36092885-4656208 2022-06-13 13:18:32 expired
f37-python-36092867-4656208 2022-06-13 13:18:13 expired
f37-python-36092743-4656208 2022-06-13 13:16:22 expired
f37-python-36092163-4656196 2022-06-13 13:08:34 expired
f37-python-36091823-4656187 2022-06-13 13:04:13 expired
f37-python-36091378-4656178 2022-06-13 12:57:19 expired
f37-python-36091274-4656178 2022-06-13 12:55:14 expired
f37-python-36091140-4656178 2022-06-13 12:53:35 expired
f37-python-36091032-4656178 2022-06-13 12:52:00 expired
f37-python-36091002-4656178 2022-06-13 12:51:36 expired
f37-python-36090954-4656171 2022-06-13 12:50:55 expired
f37-python-36090219-4656133 2022-06-13 11:42:21 expired
f37-python-36088718-4656085 2022-06-13 10:01:45 expired
f37-python-36088562-4656085 2022-06-13 09:54:09 expired
f36-build-32882046-4432914 2022-02-02 12:14:17 expired
f36-build-32881983-4432914 2022-02-02 12:08:56 expired
f36-build-32881967-4432914 2022-02-02 12:08:28 expired
f36-build-32881953-4432914 2022-02-02 12:08:27 expired
f36-build-32881896-4432872 2022-02-02 11:54:47 expired
f36-build-32881893-4432872 2022-02-02 11:54:18 expired
f36-build-32881877-4432872 2022-02-02 11:52:54 expired
f36-build-32881876-4432872 2022-02-02 11:52:54 expired
f36-build-32881866-4432872 2022-02-02 11:52:26 expired
f36-build-32881856-4432872 2022-02-02 11:51:30 expired
f36-build-32881850-4432872 2022-02-02 11:51:30 expired
f36-build-32881837-4432872 2022-02-02 11:51:01 expired
f36-build-32881833-4432872 2022-02-02 11:50:36 expired
f36-build-32881829-4432872 2022-02-02 11:50:35 expired
f36-build-32881816-4432872 2022-02-02 11:50:05 expired
f36-build-32881777-4432834 2022-02-02 11:42:33 expired
f36-build-32881768-4432834 2022-02-02 11:41:37 expired
f36-build-32881765-4432834 2022-02-02 11:41:07 expired
f36-build-32881763-4432834 2022-02-02 11:41:06 expired
f36-build-32881750-4432834 2022-02-02 11:40:10 expired
f36-build-32881745-4432834 2022-02-02 11:40:09 expired
f36-build-32881739-4432834 2022-02-02 11:39:42 expired
f36-build-32881672-4432834 2022-02-02 11:26:51 expired
f36-build-32881668-4432834 2022-02-02 11:26:23 expired
f36-build-32881638-4432808 2022-02-02 11:24:30 expired
f36-build-32881630-4432808 2022-02-02 11:24:03 expired
f36-build-32881611-4432808 2022-02-02 11:23:10 expired
f36-build-32881552-4432808 2022-02-02 11:13:41 expired
f36-build-32881518-4432749 2022-02-02 11:04:16 expired
f36-build-32881478-4432749 2022-02-02 10:58:36 expired
f36-build-32881477-4432749 2022-02-02 10:58:08 expired
f36-build-32881474-4432749 2022-02-02 10:57:40 expired
f36-build-32881472-4432749 2022-02-02 10:57:37 expired
f36-build-32881470-4432749 2022-02-02 10:56:45 expired
f36-build-32881467-4432749 2022-02-02 10:56:44 expired
f36-build-32881464-4432749 2022-02-02 10:56:44 expired